الصفحة الرئيسية
METAR-TAF:

METAR-TAF

مطار :

Richmond, أستراليا

دائرة عرض: 33-36S, خط طول: 150-47E, ارتفاع: 21 متر

مراقبة الطقس الحالي

تاريخ ووقت الإصدار 39 دقيقة قبل الساعة 17:30UTC
رياح هادئة
درجة الحرارة 5°درجة مئوية
الرطوبة 93%
ضغط 1015 hPa
الرؤية 10 كم أو أكثر

METAR: YSRI 221730Z AUTO 00000KT 9999 // NCD 05/04 Q1015 RF00.0/000.0

زمن: 04:09 (18:09 UTC)

توقعات

تاريخ ووقت الإصدار 1ساعة و 10 دقيقة قبل الساعة 16:59UTC
التوقعات صالحة من22 الساعة 18 UTC إلى 23 الساعة 18 UTC
ريح 3 عقدةمن اتجاهات متغيرة
الرؤية 10 كم أو أكثر
الغيوم لا تقل 1500 م ولا وجود لمزنة ركامية السحاب الأسود
من 23 الساعة 0200 UTC
ريح 7 عقدة من الجنوب/الجنوب الشرقي
الرؤية 10 كم أو أكثر
الغيوم لا تقل 1500 م ولا وجود لمزنة ركامية السحاب الأسود
من 23 الساعة 0800 UTC
ريح 3 عقدةمن اتجاهات متغيرة
الرؤية 10 كم أو أكثر
الغيوم لا تقل 1500 م ولا وجود لمزنة ركامية السحاب الأسود

TAF: YSRI 221659Z 2218/2318 VRB03KT CAVOK FM230200 15007KT CAVOK FM230800 VRB03KT CAVOK

أرصاد الطقس والتوقعات من أكثر من 4000 مطار (تقارير الطقس للمطار METAR والتنبؤ بالطقس بالمطارTAF).

المحطات المتاحة هي النقط الصفراء والحمراء على الخريطة.

حرك المؤشر فوق النقطة لمعرفة اسم المحطة.

ثم انقر لمعرفة أرصاد وتوقعات الطقس.

لتغيير الخارطة: اضغط على الأزرار الخضراء مع رمز الصليب الأسود للتكبير. على الزر الأخضر مع شرطة للتصغير، أو على الأسهم الخضراء للخرائط المجاورة.


METAR-TAF: